Time;durP1;ratioP1;P1;durP2;ratioP2;P2;SDS_P1;SDS_P2;PMS_P1;PMS_P2;Temp;Humidity;BMP_temperature;BMP_pressure;BME280_temperature;BME280_humidity;BME280_pressure;Samples;Min_cycle;Max_cycle;Signal;HPM_P1;HPM_P2
2021/12/23 00:01:42;;;;;;;61.27;26.20;;;;;;;-1.44;65.80;96911.09;5071598;28;20210;-68
2021/12/23 00:04:12;;;;;;;57.70;25.63;;;;;;;-1.17;65.18;96907.91;5052798;28;20548;-68
2021/12/23 00:06:43;;;;;;;62.97;27.53;;;;;;;-0.99;64.77;96897.47;5050287;28;20431;-67
2021/12/23 00:09:09;;;;;;;64.77;28.30;;;;;;;-0.73;63.95;96893.41;5051649;28;20441;-66
2021/12/23 00:11:35;;;;;;;59.33;26.10;;;;;;;-0.87;63.07;96886.47;5071977;28;20403;-67
2021/12/23 00:14:03;;;;;;;58.63;22.90;;;;;;;-1.10;64.72;96882.66;5052907;28;20651;-66
2021/12/23 00:16:46;;;;;;;52.03;24.20;;;;;;;-0.94;64.11;96882.59;5062447;28;20575;-68
2021/12/23 00:24:33;;;;;;;54.33;24.73;;;;;;;-1.09;64.53;96886.88;5067709;28;20928;-66
2021/12/23 00:26:59;;;;;;;49.93;23.87;;;;;;;-1.15;64.80;96885.50;5061171;28;20454;-68
2021/12/23 00:29:24;;;;;;;59.93;25.97;;;;;;;-1.11;64.20;96881.81;5062087;28;20462;-68
2021/12/23 00:31:50;;;;;;;59.87;25.97;;;;;;;-1.12;64.04;96879.34;5062650;28;20895;-67
2021/12/23 00:34:15;;;;;;;52.87;25.23;;;;;;;-0.92;64.10;96880.78;5066329;28;20278;-68
2021/12/23 00:36:44;;;;;;;59.07;24.53;;;;;;;-0.88;63.37;96877.09;5072814;28;20198;-68
2021/12/23 00:39:10;;;;;;;56.17;25.67;;;;;;;-0.83;63.45;96874.25;5049667;28;20212;-69
2021/12/23 00:41:36;;;;;;;57.43;24.90;;;;;;;-0.83;62.92;96869.13;5061946;28;20416;-68
2021/12/23 00:44:02;;;;;;;52.50;24.33;;;;;;;-0.81;63.05;96867.25;5058670;28;20459;-68
2021/12/23 00:46:28;;;;;;;52.43;26.33;;;;;;;-0.99;63.73;96853.72;5064813;28;20910;-68
2021/12/23 00:49:08;;;;;;;50.37;24.30;;;;;;;-0.79;63.12;96853.41;5099246;27;20544;-68
2021/12/23 00:51:34;;;;;;;51.80;25.00;;;;;;;-0.90;62.82;96847.22;5093401;28;20436;-68
2021/12/23 00:54:05;;;;;;;50.43;24.40;;;;;;;-0.92;63.26;96860.19;5076775;28;20628;-68
2021/12/23 00:56:35;;;;;;;50.57;23.80;;;;;;;-0.78;63.00;96847.34;5082587;28;20424;-67
2021/12/23 00:59:03;;;;;;;51.87;23.47;;;;;;;-0.87;62.89;96847.03;5077321;28;21010;-67
2021/12/23 01:01:28;;;;;;;49.93;23.73;;;;;;;-0.82;62.88;96848.44;5078201;28;20803;-67
2021/12/23 01:03:54;;;;;;;52.43;23.57;;;;;;;-0.89;63.13;96848.88;5078561;28;20424;-67
2021/12/23 01:06:20;;;;;;;50.57;24.93;;;;;;;-0.76;62.76;96851.56;5076416;28;20247;-67
2021/12/23 01:08:45;;;;;;;47.27;24.30;;;;;;;-0.71;62.68;96845.22;5068741;28;20222;-67
2021/12/23 01:11:11;;;;;;;58.10;25.57;;;;;;;-0.70;62.14;96843.47;5069877;28;20195;-67
2021/12/23 01:13:38;;;;;;;54.97;25.90;;;;;;;-1.06;62.70;96849.84;5088242;28;20222;-67
2021/12/23 01:16:14;;;;;;;47.33;21.30;;;;;;;-0.70;62.47;96844.31;5071479;28;20186;-67
2021/12/23 01:18:52;;;;;;;53.30;23.00;;;;;;;-0.61;62.01;96842.91;5082761;28;20419;-67
2021/12/23 01:21:17;;;;;;;50.97;24.00;;;;;;;-0.54;61.89;96844.22;5071798;28;20416;-68
2021/12/23 01:23:52;;;;;;;50.90;23.67;;;;;;;-0.43;61.74;96835.03;5079588;28;20439;-67
2021/12/23 01:26:21;;;;;;;51.37;22.90;;;;;;;-0.47;61.32;96839.53;5074840;28;20207;-68
2021/12/23 01:29:05;;;;;;;52.60;25.07;;;;;;;-0.53;61.76;96838.16;5082825;28;20553;-68
2021/12/23 01:31:32;;;;;;;52.30;24.20;;;;;;;-0.57;61.81;96838.44;5070445;28;20416;-68
2021/12/23 01:33:59;;;;;;;57.60;25.43;;;;;;;-0.54;61.29;96831.34;5072766;28;20450;-68
2021/12/23 01:36:25;;;;;;;51.83;23.30;;;;;;;-0.54;61.66;96830.50;5081310;28;20477;-67
2021/12/23 01:38:52;;;;;;;49.17;22.30;;;;;;;-0.43;61.24;96825.53;5075356;28;20939;-66
2021/12/23 01:41:18;;;;;;;58.97;25.10;;;;;;;-0.47;61.20;96822.31;5086664;28;20436;-70
2021/12/23 01:43:44;;;;;;;53.37;25.33;;;;;;;-0.60;61.57;96815.44;5057198;28;20466;-67
2021/12/23 01:46:10;;;;;;;54.97;24.50;;;;;;;-0.50;61.29;96812.19;5089304;28;20515;-68
2021/12/23 01:48:35;;;;;;;52.87;24.67;;;;;;;-0.42;61.03;96810.94;5076768;28;20582;-67
2021/12/23 01:51:01;;;;;;;52.07;23.10;;;;;;;-0.39;61.18;96806.41;5084753;28;20185;-67
2021/12/23 01:53:27;;;;;;;52.10;23.87;;;;;;;-0.53;61.38;96809.00;5076542;28;20646;-68
2021/12/23 01:55:53;;;;;;;53.83;24.80;;;;;;;-0.66;61.80;96803.78;5076890;28;20186;-68
2021/12/23 01:58:20;;;;;;;50.13;22.97;;;;;;;-0.82;61.62;96798.72;5082919;28;20471;-70
2021/12/23 02:00:48;;;;;;;48.93;23.60;;;;;;;-0.52;61.43;96793.47;5064408;28;20204;-66
2021/12/23 02:03:14;;;;;;;48.67;22.27;;;;;;;-0.45;61.56;96793.09;5058681;28;20454;-68
2021/12/23 02:05:40;;;;;;;55.10;24.77;;;;;;;-0.45;61.15;96786.19;5074650;28;20931;-68
2021/12/23 02:08:05;;;;;;;48.00;24.10;;;;;;;-0.42;60.96;96786.00;5056761;28;20456;-68
2021/12/23 02:10:31;;;;;;;50.07;22.53;;;;;;;-0.52;61.13;96784.91;5069575;28;20191;-69
2021/12/23 02:12:57;;;;;;;51.03;23.60;;;;;;;-0.64;62.09;96791.66;5082557;28;20218;-70
2021/12/23 02:15:23;;;;;;;57.70;25.33;;;;;;;-0.45;61.34;96775.06;5075962;28;20179;-67
2021/12/23 02:17:49;;;;;;;49.63;22.97;;;;;;;-0.53;61.61;96778.94;5075929;28;20608;-65
2021/12/23 02:20:20;;;;;;;53.43;23.50;;;;;;;-0.43;61.02;96775.78;5083278;28;20188;-68
2021/12/23 02:22:46;;;;;;;59.03;25.80;;;;;;;-0.56;61.24;96771.41;5076429;28;20957;-69
2021/12/23 02:25:13;;;;;;;47.97;23.33;;;;;;;-0.43;61.14;96770.66;5061976;28;20434;-68
2021/12/23 02:27:40;;;;;;;49.37;22.30;;;;;;;-0.51;60.68;96766.81;5069172;28;20978;-68
2021/12/23 02:30:10;;;;;;;56.40;23.30;;;;;;;-0.48;61.06;96760.63;5073090;28;20825;-67
2021/12/23 02:32:36;;;;;;;56.07;25.50;;;;;;;-0.47;60.47;96757.13;5063793;28;20506;-68
2021/12/23 02:35:03;;;;;;;55.63;24.67;;;;;;;-0.43;60.91;96757.78;5072344;28;20500;-68
2021/12/23 02:37:29;;;;;;;53.30;25.03;;;;;;;-0.70;61.26;96761.97;5062568;28;20170;-67
2021/12/23 02:39:54;;;;;;;47.77;22.40;;;;;;;-0.73;60.87;96751.84;5053362;28;20433;-67
2021/12/23 02:42:20;;;;;;;56.20;25.50;;;;;;;-0.69;60.76;96745.56;5068264;28;20215;-68
2021/12/23 02:44:45;;;;;;;54.03;25.33;;;;;;;-0.60;60.89;96733.88;5061975;28;20179;-68
2021/12/23 02:47:11;;;;;;;50.20;24.83;;;;;;;-0.73;61.04;96735.56;5072675;28;20291;-67
2021/12/23 02:49:37;;;;;;;45.70;22.13;;;;;;;-0.66;60.96;96737.66;5057932;28;20537;-68
2021/12/23 02:52:02;;;;;;;53.80;23.33;;;;;;;-0.65;60.74;96733.34;5066966;28;20194;-66
2021/12/23 02:54:28;;;;;;;46.57;21.43;;;;;;;-0.64;60.89;96732.44;5060833;28;20179;-68
2021/12/23 02:56:54;;;;;;;52.03;23.53;;;;;;;-0.71;61.04;96723.41;5063685;28;20175;-68
2021/12/23 02:59:20;;;;;;;46.70;23.13;;;;;;;-0.70;61.25;96730.22;5056342;28;20233;-67
2021/12/23 03:01:45;;;;;;;52.60;24.00;;;;;;;-0.55;60.89;96724.13;5072816;28;20262;-66
2021/12/23 03:04:11;;;;;;;51.50;22.43;;;;;;;-0.50;60.41;96727.25;5064538;28;20264;-66
2021/12/23 03:06:37;;;;;;;51.60;22.40;;;;;;;-0.32;60.62;96732.19;5065994;28;20232;-68
2021/12/23 03:09:04;;;;;;;51.90;22.77;;;;;;;-0.52;60.85;96730.84;5058811;28;20208;-68
2021/12/23 03:11:30;;;;;;;48.77;23.40;;;;;;;-0.54;60.72;96724.94;5069669;28;20556;-68
2021/12/23 03:13:57;;;;;;;47.93;22.53;;;;;;;-0.47;60.69;96723.66;5071412;28;20426;-68
2021/12/23 03:16:25;;;;;;;50.07;21.97;;;;;;;-0.44;60.45;96727.78;5066501;28;20423;-67
2021/12/23 03:18:51;;;;;;;46.13;21.70;;;;;;;-0.49;60.44;96720.34;5073174;28;20821;-68
2021/12/23 03:21:17;;;;;;;49.03;23.60;;;;;;;-0.91;61.27;96725.47;5062921;28;20905;-67
2021/12/23 03:23:43;;;;;;;43.67;21.07;;;;;;;-0.59;61.49;96722.66;5052775;28;20441;-68
2021/12/23 03:26:09;;;;;;;52.00;23.90;;;;;;;-0.59;60.84;96716.69;5058974;28;20435;-68
2021/12/23 03:28:36;;;;;;;47.57;22.50;;;;;;;-0.69;60.85;96711.28;5060904;28;20245;-66
2021/12/23 03:31:02;;;;;;;46.97;22.30;;;;;;;-0.73;60.76;96702.09;5058901;28;20181;-67
2021/12/23 03:33:28;;;;;;;48.60;22.50;;;;;;;-0.63;60.90;96705.78;5052222;28;20851;-68
2021/12/23 03:35:53;;;;;;;43.53;21.47;;;;;;;-0.76;61.32;96708.25;5050860;28;20425;-67
2021/12/23 03:38:20;;;;;;;38.87;19.33;;;;;;;-0.60;61.39;96704.75;5056112;28;20180;-67
2021/12/23 03:40:46;;;;;;;47.30;22.67;;;;;;;-0.64;60.73;96696.41;5078954;28;20206;-71
2021/12/23 03:43:14;;;;;;;47.67;22.03;;;;;;;-0.51;60.59;96693.88;5084683;28;20532;-68
2021/12/23 03:45:40;;;;;;;41.63;20.50;;;;;;;-0.50;60.32;96678.31;5075992;28;20447;-68
2021/12/23 03:48:05;;;;;;;47.43;21.20;;;;;;;-0.37;59.71;96680.97;5089345;28;20458;-67
2021/12/23 03:50:31;;;;;;;46.20;21.07;;;;;;;-0.41;60.31;96674.34;5059984;28;20538;-68
2021/12/23 03:52:57;;;;;;;49.80;23.63;;;;;;;-0.43;60.11;96675.38;5063301;28;20205;-67
2021/12/23 03:55:22;;;;;;;48.97;21.90;;;;;;;-0.47;60.05;96669.59;5065962;28;20640;-66
2021/12/23 03:57:48;;;;;;;47.03;23.30;;;;;;;-0.60;60.31;96661.81;5064278;28;20183;-68
2021/12/23 04:00:18;;;;;;;49.80;22.23;;;;;;;-0.51;59.81;96661.25;5063997;28;20652;-69
2021/12/23 04:02:44;;;;;;;49.77;22.87;;;;;;;-0.51;60.16;96653.53;5055874;28;20383;-67
2021/12/23 04:05:10;;;;;;;45.00;21.40;;;;;;;-0.50;59.99;96662.88;5050821;28;20424;-68
2021/12/23 04:07:38;;;;;;;51.90;22.20;;;;;;;-0.61;60.01;96657.56;5052683;28;20449;-68
2021/12/23 04:10:05;;;;;;;46.03;20.10;;;;;;;-0.50;60.26;96665.44;5061912;28;20430;-68
2021/12/23 04:12:31;;;;;;;42.47;20.60;;;;;;;-0.51;59.94;96663.81;5064023;28;20457;-69
2021/12/23 04:14:57;;;;;;;43.57;21.00;;;;;;;-0.33;59.47;96661.81;5061312;28;20431;-68
2021/12/23 04:17:23;;;;;;;43.23;21.10;;;;;;;-0.26;59.55;96664.00;5060091;28;20439;-68
2021/12/23 04:19:49;;;;;;;47.37;22.07;;;;;;;-0.25;59.14;96663.06;5067997;28;20204;-68
2021/12/23 04:22:15;;;;;;;45.27;21.87;;;;;;;-0.33;59.91;96656.69;5062496;28;20193;-67
2021/12/23 04:24:41;;;;;;;43.37;20.00;;;;;;;-0.17;59.46;96660.81;5054574;28;20823;-69
2021/12/23 04:27:08;;;;;;;41.30;20.23;;;;;;;-0.31;59.91;96651.41;5070362;28;21013;-68
2021/12/23 04:29:33;;;;;;;40.97;19.93;;;;;;;-0.25;59.21;96643.28;5071096;28;20518;-70
2021/12/23 04:32:00;;;;;;;43.17;20.83;;;;;;;-0.38;59.70;96632.97;5062556;28;20437;-68
2021/12/23 04:34:26;;;;;;;43.50;20.60;;;;;;;-0.25;59.61;96622.69;5070652;28;20173;-68
2021/12/23 04:36:52;;;;;;;45.00;21.87;;;;;;;-0.14;59.10;96621.19;5059694;28;20413;-68
2021/12/23 04:39:17;;;;;;;43.03;21.10;;;;;;;-0.29;59.46;96616.09;5056833;28;20438;-69
2021/12/23 04:41:43;;;;;;;42.93;19.90;;;;;;;-0.28;59.06;96616.91;5070266;28;20199;-67
2021/12/23 04:44:09;;;;;;;45.10;21.50;;;;;;;-0.56;60.01;96608.38;5044990;28;20181;-68
2021/12/23 04:46:35;;;;;;;44.10;21.00;;;;;;;-0.73;60.63;96605.13;5056904;28;20178;-69
2021/12/23 04:49:00;;;;;;;42.33;20.70;;;;;;;-0.34;60.33;96607.81;5067248;28;20230;-68
2021/12/23 04:51:26;;;;;;;41.00;19.63;;;;;;;-0.28;59.92;96607.44;5056996;28;20185;-67
2021/12/23 04:53:52;;;;;;;45.57;22.03;;;;;;;-0.22;59.67;96604.47;5071163;28;20197;-67
2021/12/23 04:56:18;;;;;;;44.00;21.00;;;;;;;-0.15;59.59;96604.88;5067054;28;20177;-66
2021/12/23 04:58:44;;;;;;;44.63;19.97;;;;;;;-0.12;59.18;96598.69;5030789;28;20303;-69
2021/12/23 05:01:19;;;;;;;45.10;21.60;;;;;;;0.01;59.17;96596.97;5072582;28;20416;-68
2021/12/23 05:03:47;;;;;;;43.63;19.03;;;;;;;-0.02;59.60;96586.88;5051426;28;20989;-67
2021/12/23 05:06:14;;;;;;;43.50;19.93;;;;;;;-0.02;59.34;96582.53;5042801;28;20425;-67
2021/12/23 05:08:40;;;;;;;43.20;20.17;;;;;;;-0.05;59.48;96576.78;5066095;28;20446;-68
2021/12/23 05:11:05;;;;;;;46.37;20.50;;;;;;;-0.04;59.29;96574.09;5067428;28;20791;-66
2021/12/23 05:13:31;;;;;;;41.33;19.27;;;;;;;-0.39;59.97;96577.22;5056271;28;20193;-68
2021/12/23 05:15:56;;;;;;;47.83;19.63;;;;;;;-0.18;59.43;96577.59;5060147;28;20187;-68
2021/12/23 05:18:22;;;;;;;42.60;20.50;;;;;;;0.03;59.18;96589.97;5069109;28;20629;-68
2021/12/23 05:20:48;;;;;;;40.27;19.83;;;;;;;-0.12;59.38;96585.81;5061118;28;20380;-68
2021/12/23 05:23:14;;;;;;;39.90;19.83;;;;;;;-0.07;59.10;96586.34;5066042;28;20198;-69
2021/12/23 05:25:40;;;;;;;37.30;19.00;;;;;;;0.07;58.73;96590.56;5058801;28;20489;-67
2021/12/23 05:28:05;;;;;;;40.63;18.57;;;;;;;0.01;59.85;96581.50;5062438;28;20213;-68
2021/12/23 05:30:31;;;;;;;41.00;18.27;;;;;;;0.10;59.59;96585.22;5058068;28;20183;-67
2021/12/23 05:32:57;;;;;;;41.10;20.50;;;;;;;-0.03;59.62;96600.69;5061587;28;20242;-69
2021/12/23 05:35:23;;;;;;;45.63;21.53;;;;;;;0.03;59.95;96604.59;5050793;28;20198;-68
2021/12/23 05:37:49;;;;;;;40.73;19.27;;;;;;;0.04;59.78;96603.69;5069829;28;20276;-70
2021/12/23 05:40:19;;;;;;;41.87;19.40;;;;;;;0.12;59.15;96602.25;5071803;28;20499;-68
2021/12/23 05:42:46;;;;;;;41.33;19.93;;;;;;;0.19;58.64;96600.06;5063315;28;20440;-68
2021/12/23 05:45:12;;;;;;;35.67;17.77;;;;;;;0.23;59.14;96596.38;5073970;28;20515;-69
2021/12/23 05:47:38;;;;;;;41.10;20.27;;;;;;;0.22;59.23;96588.75;5065859;28;20811;-68
2021/12/23 05:50:04;;;;;;;38.23;19.33;;;;;;;0.28;58.58;96575.44;5065399;28;20506;-68
2021/12/23 05:52:30;;;;;;;41.80;20.20;;;;;;;0.25;58.84;96573.09;5059482;28;20680;-68
2021/12/23 05:54:57;;;;;;;39.73;19.33;;;;;;;0.28;58.71;96568.53;5052279;28;20463;-68
2021/12/23 05:57:24;;;;;;;39.57;19.77;;;;;;;0.35;58.52;96563.78;5067585;28;20180;-69
2021/12/23 05:59:49;;;;;;;42.10;19.27;;;;;;;0.33;58.51;96559.66;5057210;28;20788;-68
2021/12/23 06:02:15;;;;;;;36.83;17.93;;;;;;;0.43;58.20;96561.50;5061867;28;20444;-67
2021/12/23 06:04:40;;;;;;;36.17;19.27;;;;;;;0.41;58.24;96552.25;5069225;28;20169;-68
2021/12/23 06:07:06;;;;;;;41.03;20.30;;;;;;;0.38;57.67;96566.13;5054292;28;20184;-67
2021/12/23 06:09:32;;;;;;;42.63;20.07;;;;;;;0.34;58.15;96561.31;5067432;28;20199;-66
2021/12/23 06:11:58;;;;;;;48.03;21.57;;;;;;;0.18;58.44;96556.38;5061117;28;20293;-68
2021/12/23 06:14:23;;;;;;;41.10;18.77;;;;;;;0.23;58.35;96554.31;5063833;28;20169;-68
2021/12/23 06:16:49;;;;;;;42.10;20.83;;;;;;;0.18;58.22;96551.22;5064585;28;20671;-67
2021/12/23 06:19:14;;;;;;;42.63;19.20;;;;;;;0.23;58.38;96556.91;5063033;28;20691;-69
2021/12/23 06:21:40;;;;;;;41.87;19.57;;;;;;;0.33;57.60;96560.50;5070762;28;20214;-67
2021/12/23 06:24:06;;;;;;;39.47;19.10;;;;;;;0.25;58.30;96555.84;5063746;28;20205;-67
2021/12/23 06:26:32;;;;;;;42.63;19.87;;;;;;;0.21;58.27;96556.16;5066588;28;20185;-69
2021/12/23 06:28:58;;;;;;;43.00;19.40;;;;;;;0.19;58.40;96555.44;5057322;28;20462;-69
2021/12/23 06:31:23;;;;;;;40.90;21.20;;;;;;;0.27;58.58;96555.72;5071885;28;20682;-68
2021/12/23 06:33:49;;;;;;;45.47;19.07;;;;;;;0.26;58.47;96559.25;5055737;28;20530;-67
2021/12/23 06:36:15;;;;;;;42.40;20.23;;;;;;;0.25;58.21;96562.78;5059065;28;20578;-68
2021/12/23 06:38:44;;;;;;;35.63;18.80;;;;;;;0.28;58.85;96578.00;5059377;28;20174;-66
2021/12/23 06:41:10;;;;;;;38.83;18.87;;;;;;;0.31;58.72;96570.06;5069402;28;20177;-69
2021/12/23 06:43:36;;;;;;;40.47;20.90;;;;;;;0.34;58.62;96567.28;5067564;28;20431;-68
2021/12/23 06:46:03;;;;;;;44.50;20.90;;;;;;;0.32;58.13;96564.00;5063620;28;20479;-69
2021/12/23 06:48:32;;;;;;;42.17;18.70;;;;;;;0.32;58.29;96574.31;5057329;28;20206;-67
2021/12/23 06:51:00;;;;;;;44.70;21.30;;;;;;;0.34;58.33;96564.72;5062975;28;20434;-67
2021/12/23 06:53:36;;;;;;;43.30;19.80;;;;;;;0.41;58.23;96563.38;5059072;28;20443;-69
2021/12/23 06:56:02;;;;;;;37.43;18.23;;;;;;;0.33;58.35;96551.91;5057722;28;20925;-68
2021/12/23 06:58:28;;;;;;;39.60;19.00;;;;;;;0.27;58.36;96560.91;5050153;28;20417;-67
2021/12/23 07:00:54;;;;;;;44.70;20.40;;;;;;;0.32;58.76;96558.84;5059981;28;20261;-68
2021/12/23 07:03:20;;;;;;;39.03;18.60;;;;;;;0.49;58.74;96562.03;5057009;28;20303;-68
2021/12/23 07:05:51;;;;;;;43.37;19.77;;;;;;;0.53;58.33;96563.44;5055925;28;20975;-68
2021/12/23 07:08:28;;;;;;;41.93;19.33;;;;;;;0.66;58.19;96566.84;5063214;28;20477;-67
2021/12/23 07:10:54;;;;;;;36.80;17.43;;;;;;;0.63;58.89;96556.72;5062409;28;20424;-68
2021/12/23 07:13:20;;;;;;;39.50;18.10;;;;;;;0.70;58.35;96552.81;5062590;28;20783;-69
2021/12/23 07:15:45;;;;;;;46.07;19.67;;;;;;;0.73;58.66;96552.59;5064496;28;20197;-69
2021/12/23 07:18:11;;;;;;;37.33;19.57;;;;;;;0.66;58.55;96553.94;5071448;28;20171;-67
2021/12/23 07:20:36;;;;;;;32.83;17.30;;;;;;;0.76;58.60;96551.53;5065009;28;20229;-68
2021/12/23 07:23:02;;;;;;;40.57;18.70;;;;;;;0.71;58.75;96553.63;5058857;28;20248;-66
2021/12/23 07:25:28;;;;;;;37.67;17.90;;;;;;;0.72;58.41;96552.69;5070805;28;20186;-67
2021/12/23 07:27:54;;;;;;;34.77;16.20;;;;;;;0.73;58.52;96555.19;5071683;28;20189;-68
2021/12/23 07:30:20;;;;;;;41.93;18.57;;;;;;;0.84;58.56;96553.59;5071152;28;20188;-69
2021/12/23 07:32:47;;;;;;;40.30;18.20;;;;;;;0.88;58.68;96542.94;5055238;28;20434;-69
2021/12/23 07:35:14;;;;;;;34.50;17.80;;;;;;;0.80;58.25;96549.56;5055336;28;20559;-69
2021/12/23 07:37:40;;;;;;;37.50;17.77;;;;;;;0.92;58.93;96556.44;5057883;28;20513;-67
2021/12/23 07:40:06;;;;;;;35.00;18.80;;;;;;;0.99;58.50;96549.94;5072177;28;20470;-68
2021/12/23 07:42:33;;;;;;;42.00;19.27;;;;;;;0.93;58.70;96557.28;5073845;28;20435;-67
2021/12/23 07:45:05;;;;;;;45.10;18.50;;;;;;;0.93;58.80;96547.78;5055176;28;20414;-67
2021/12/23 07:47:31;;;;;;;32.97;16.70;;;;;;;1.09;58.15;96541.53;5066733;28;20484;-68
2021/12/23 07:49:57;;;;;;;47.13;18.00;;;;;;;1.09;58.04;96534.59;5054070;28;20476;-68
2021/12/23 07:52:23;;;;;;;42.30;18.20;;;;;;;1.26;58.74;96546.28;5051157;28;20922;-67
2021/12/23 07:54:50;;;;;;;35.00;16.67;;;;;;;1.31;57.95;96551.97;5072413;28;20609;-68
2021/12/23 07:57:16;;;;;;;36.43;16.17;;;;;;;1.41;58.14;96553.88;5076357;28;20169;-67
2021/12/23 07:59:41;;;;;;;39.10;18.20;;;;;;;1.30;57.92;96562.41;5074755;28;20503;-68
2021/12/23 08:02:07;;;;;;;42.20;18.60;;;;;;;1.12;58.43;96552.47;5060858;28;20218;-67
2021/12/23 08:04:33;;;;;;;38.77;18.37;;;;;;;1.02;59.31;96552.28;5057518;28;20186;-68
2021/12/23 08:07:02;;;;;;;36.90;17.73;;;;;;;1.33;58.38;96549.25;5058450;28;20260;-67
2021/12/23 08:09:28;;;;;;;40.20;20.67;;;;;;;1.54;58.12;96544.31;5064142;28;20417;-69
2021/12/23 08:11:53;;;;;;;42.97;19.90;;;;;;;1.59;57.94;96543.97;5059752;28;20884;-67
2021/12/23 08:14:19;;;;;;;45.37;22.20;;;;;;;1.67;57.77;96546.84;5065455;28;20179;-68
2021/12/23 08:16:45;;;;;;;45.30;22.83;;;;;;;1.74;57.33;96537.69;5067352;28;20181;-68
2021/12/23 08:19:11;;;;;;;39.13;19.20;;;;;;;1.82;56.86;96542.28;5050313;28;20478;-68
2021/12/23 08:21:36;;;;;;;37.00;18.80;;;;;;;1.86;56.94;96535.97;5052113;28;20587;-68
2021/12/23 08:24:02;;;;;;;41.33;20.00;;;;;;;2.16;56.63;96537.16;5068503;28;20198;-68
2021/12/23 08:26:29;;;;;;;37.63;18.70;;;;;;;2.17;56.42;96523.28;5056879;28;20179;-67
2021/12/23 08:28:56;;;;;;;37.00;18.87;;;;;;;2.38;56.18;96509.69;5056876;28;20652;-69
2021/12/23 08:31:26;;;;;;;37.70;19.10;;;;;;;2.43;55.86;96507.53;5070796;28;20421;-69
2021/12/23 08:33:52;;;;;;;57.10;28.33;;;;;;;2.55;55.54;96500.63;5070894;28;20432;-68
2021/12/23 08:36:17;;;;;;;46.83;24.27;;;;;;;2.42;55.58;96498.13;5060966;28;20445;-68
2021/12/23 08:38:43;;;;;;;50.50;24.03;;;;;;;2.58;56.02;96501.19;5058850;28;20744;-70
2021/12/23 08:41:09;;;;;;;41.70;19.57;;;;;;;2.70;55.32;96504.59;5066196;28;20175;-69
2021/12/23 08:43:36;;;;;;;36.87;18.87;;;;;;;2.81;55.32;96503.72;5057588;28;20244;-68
2021/12/23 08:46:02;;;;;;;33.50;17.33;;;;;;;2.97;55.45;96498.16;5068681;28;20417;-70
2021/12/23 08:48:28;;;;;;;37.97;18.73;;;;;;;2.95;55.39;96491.47;5052296;28;20458;-68
2021/12/23 08:50:54;;;;;;;40.83;21.50;;;;;;;3.12;55.21;96497.88;5044353;28;20437;-67
2021/12/23 08:53:20;;;;;;;30.93;16.57;;;;;;;3.37;54.98;96496.75;5052037;28;20195;-67
2021/12/23 08:55:46;;;;;;;32.67;17.17;;;;;;;3.50;54.92;96499.97;5048934;28;20789;-67
2021/12/23 08:58:11;;;;;;;28.10;14.97;;;;;;;3.72;54.38;96500.00;5051789;28;20183;-67
2021/12/23 09:00:38;;;;;;;33.10;17.50;;;;;;;3.90;54.49;96501.03;5053641;28;20252;-68
2021/12/23 09:03:06;;;;;;;40.00;21.27;;;;;;;4.02;54.38;96496.63;5061364;28;20308;-66
2021/12/23 09:05:32;;;;;;;29.63;15.80;;;;;;;4.19;53.99;96487.41;5059089;28;20421;-66
2021/12/23 09:07:58;;;;;;;27.73;15.43;;;;;;;4.34;53.89;96487.06;5061247;28;20502;-67
2021/12/23 09:10:24;;;;;;;30.20;15.70;;;;;;;4.64;54.08;96496.59;5073064;28;20428;-67
2021/12/23 09:12:51;;;;;;;31.90;12.43;;;;;;;4.54;53.22;96491.34;5065631;28;20202;-67
2021/12/23 09:15:17;;;;;;;20.40;12.23;;;;;;;4.57;54.10;96490.25;5065091;28;20424;-67
2021/12/23 09:17:43;;;;;;;21.50;12.30;;;;;;;4.70;53.17;96485.66;5065035;28;20418;-67
2021/12/23 09:20:11;;;;;;;20.47;11.03;;;;;;;4.72;53.27;96494.13;5057125;28;20434;-67
2021/12/23 09:22:37;;;;;;;25.97;13.27;;;;;;;4.72;54.06;96483.75;5053154;28;20473;-66
2021/12/23 09:25:10;;;;;;;21.07;12.20;;;;;;;5.01;52.90;96482.16;5061177;28;20427;-68
2021/12/23 09:27:53;;;;;;;19.90;12.40;;;;;;;4.86;53.05;96492.13;5062522;28;20458;-66
2021/12/23 09:33:04;;;;;;;21.97;11.63;;;;;;;4.88;53.96;96498.00;5065752;28;21035;-67
2021/12/23 09:35:32;;;;;;;27.73;12.60;;;;;;;4.82;53.62;96494.16;5072010;28;20421;-66
2021/12/23 09:37:58;;;;;;;20.50;11.90;;;;;;;5.05;53.20;96501.72;5062967;28;20408;-69
2021/12/23 09:40:25;;;;;;;24.33;12.10;;;;;;;5.35;53.07;96495.59;5073636;28;20444;-66
2021/12/23 09:42:52;;;;;;;21.20;12.00;;;;;;;5.46;52.63;96493.81;5074305;28;20570;-65
2021/12/23 09:45:18;;;;;;;17.30;11.23;;;;;;;5.60;52.69;96495.19;5069546;28;20440;-66
2021/12/23 09:47:47;;;;;;;20.57;11.30;;;;;;;5.43;53.02;96491.47;5069907;28;20475;-67
2021/12/23 09:50:17;;;;;;;18.53;10.77;;;;;;;5.26;54.02;96485.19;5057183;28;20570;-65
2021/12/23 09:52:46;;;;;;;18.90;10.90;;;;;;;5.45;53.76;96490.38;5073459;28;20443;-68
2021/12/23 09:55:13;;;;;;;19.33;11.70;;;;;;;5.68;53.47;96480.50;5069303;28;20413;-67
2021/12/23 09:57:39;;;;;;;24.60;12.50;;;;;;;5.79;53.15;96486.53;5068224;28;20779;-66
2021/12/23 10:00:06;;;;;;;28.30;14.43;;;;;;;6.04;52.51;96471.31;5064983;28;20421;-68
2021/12/23 10:02:32;;;;;;;24.60;10.97;;;;;;;6.26;52.17;96467.50;5064230;28;20473;-67
2021/12/23 10:04:58;;;;;;;18.30;10.57;;;;;;;6.41;52.23;96473.09;5063651;28;21102;-67
2021/12/23 10:07:23;;;;;;;17.17;10.27;;;;;;;6.55;52.06;96459.56;5059215;28;20205;-68
2021/12/23 10:32:00;;;;;;;15.87;9.40;;;;;;;7.39;50.74;96449.00;5073189;28;20410;-67
2021/12/23 10:39:39;;;;;;;12.13;7.50;;;;;;;7.33;50.69;96449.56;5072728;28;20492;-68
2021/12/23 10:42:18;;;;;;;15.20;8.40;;;;;;;7.50;50.41;96445.31;5070292;28;20445;-70
2021/12/23 10:45:10;;;;;;;12.57;8.30;;;;;;;7.59;50.00;96434.00;5061332;28;20782;-69
2021/12/23 10:47:51;;;;;;;14.43;8.60;;;;;;;7.56;50.73;96430.88;5062259;28;20464;-68
2021/12/23 10:50:36;;;;;;;14.13;7.30;;;;;;;7.74;50.43;96429.03;5063862;28;20504;-68
2021/12/23 10:53:22;;;;;;;10.07;7.23;;;;;;;7.58;50.37;96427.13;5062864;28;20475;-67
2021/12/23 10:59:13;;;;;;;12.30;7.40;;;;;;;7.82;49.50;96413.41;5065966;28;20528;-70
2021/12/23 11:02:05;;;;;;;10.37;6.97;;;;;;;7.66;50.24;96392.47;5072203;28;20409;-68
2021/12/23 11:04:37;;;;;;;10.53;7.33;;;;;;;7.51;50.11;96400.84;5061208;28;20413;-69
2021/12/23 11:07:15;;;;;;;12.80;7.30;;;;;;;7.69;50.00;96398.19;5058775;28;20417;-67
2021/12/23 11:10:17;;;;;;;17.67;7.50;;;;;;;7.74;49.86;96391.69;5064908;28;20445;-67
2021/12/23 11:37:43;;;;;;;9.83;5.73;;;;;;;8.21;47.97;96359.13;5053228;28;20409;-68
2021/12/23 11:40:27;;;;;;;11.10;6.13;;;;;;;8.11;47.93;96349.63;5077411;28;20516;-68
2021/12/23 11:43:13;;;;;;;9.53;5.60;;;;;;;7.93;48.15;96347.13;5071829;28;20491;-69
2021/12/23 11:45:40;;;;;;;7.90;5.60;;;;;;;8.12;47.47;96330.38;5079631;28;20416;-69
2021/12/23 11:48:08;;;;;;;10.33;5.87;;;;;;;8.52;46.99;96338.50;5078344;28;21011;-68
2021/12/23 11:50:42;;;;;;;10.53;6.10;;;;;;;8.28;47.26;96339.25;5077062;28;20485;-67
2021/12/23 11:53:09;;;;;;;11.20;6.53;;;;;;;8.60;46.59;96333.31;5069643;28;20449;-68
2021/12/23 11:55:36;;;;;;;8.80;5.70;;;;;;;8.74;45.82;96324.00;5067189;28;20422;-70
2021/12/23 11:58:02;;;;;;;8.50;5.60;;;;;;;8.25;47.09;96313.44;5057187;28;20429;-68
2021/12/23 12:00:42;;;;;;;13.13;5.03;;;;;;;8.64;45.99;96315.53;5070831;28;20428;-67
2021/12/23 12:03:10;;;;;;;7.50;5.63;;;;;;;8.77;45.62;96312.41;5071314;28;20444;-68
2021/12/23 12:05:37;;;;;;;9.60;5.90;;;;;;;9.07;45.57;96313.53;5067886;28;20507;-67
2021/12/23 12:08:11;;;;;;;7.60;5.43;;;;;;;9.16;45.44;96303.91;5062570;28;20918;-68
2021/12/23 12:10:38;;;;;;;8.50;5.60;;;;;;;9.05;45.42;96299.00;5071830;28;20427;-68
2021/12/23 12:13:08;;;;;;;9.57;5.90;;;;;;;8.97;45.33;96297.22;5062679;28;20958;-67
2021/12/23 12:15:57;;;;;;;13.50;7.20;;;;;;;9.03;45.24;96291.34;5062691;28;20439;-69
2021/12/23 12:18:23;;;;;;;7.43;5.20;;;;;;;9.06;45.71;96284.97;5071127;28;20463;-69
2021/12/23 12:20:54;;;;;;;8.77;5.53;;;;;;;9.43;44.76;96288.03;5068813;28;20740;-68
2021/12/23 12:23:36;;;;;;;6.73;4.90;;;;;;;9.03;45.79;96280.06;5067312;28;20544;-68
2021/12/23 12:26:22;;;;;;;12.37;6.70;;;;;;;9.13;45.54;96292.97;5071152;28;20425;-68
2021/12/23 12:28:48;;;;;;;12.43;6.43;;;;;;;9.46;44.94;96279.81;5065688;28;20445;-69